sensor_id;sensor_type;location;lat;lon;timestamp;pressure;altitude;pressure_sealevel;temperature;humidity
25560;BME280;13450;49.374;8.584;2023-05-21T00:01:37;100154.72;;;15.75;nan
25560;BME280;13450;49.374;8.584;2023-05-21T00:04:03;100153.03;;;15.74;nan
25560;BME280;13450;49.374;8.584;2023-05-21T00:06:30;100163.03;;;15.74;nan
25560;BME280;13450;49.374;8.584;2023-05-21T00:08:56;100168.44;;;15.74;nan
25560;BME280;13450;49.374;8.584;2023-05-21T00:11:21;100164.31;;;15.71;nan
25560;BME280;13450;49.374;8.584;2023-05-21T00:13:48;100167.22;;;15.69;nan
25560;BME280;13450;49.374;8.584;2023-05-21T00:16:13;100163.13;;;15.67;nan
25560;BME280;13450;49.374;8.584;2023-05-21T00:18:38;100157.72;;;15.67;nan
25560;BME280;13450;49.374;8.584;2023-05-21T00:21:04;100159.22;;;15.63;nan
25560;BME280;13450;49.374;8.584;2023-05-21T00:23:29;100158.78;;;15.66;nan
25560;BME280;13450;49.374;8.584;2023-05-21T00:25:57;100153.81;;;15.63;nan
25560;BME280;13450;49.374;8.584;2023-05-21T00:28:23;100151.13;;;15.63;nan
25560;BME280;13450;49.374;8.584;2023-05-21T00:30:54;100153.81;;;15.63;nan
25560;BME280;13450;49.374;8.584;2023-05-21T00:33:21;100135.16;;;15.61;nan
25560;BME280;13450;49.374;8.584;2023-05-21T00:35:46;100141.41;;;15.62;nan
25560;BME280;13450;49.374;8.584;2023-05-21T00:38:11;100131.19;;;15.64;nan
25560;BME280;13450;49.374;8.584;2023-05-21T00:40:40;100130.38;;;15.63;nan
25560;BME280;13450;49.374;8.584;2023-05-21T00:43:06;100132.84;;;15.65;nan
25560;BME280;13450;49.374;8.584;2023-05-21T00:45:34;100128.72;;;15.62;nan
25560;BME280;13450;49.374;8.584;2023-05-21T00:48:01;100131.63;;;15.61;nan
25560;BME280;13450;49.374;8.584;2023-05-21T00:50:30;100124.59;;;15.60;nan
25560;BME280;13450;49.374;8.584;2023-05-21T00:52:59;100125.66;;;15.59;nan
25560;BME280;13450;49.374;8.584;2023-05-21T00:55:24;100127.28;;;15.60;nan
25560;BME280;13450;49.374;8.584;2023-05-21T00:57:50;100120.84;;;15.61;nan
25560;BME280;13450;49.374;8.584;2023-05-21T01:00:15;100126.72;;;15.58;nan
25560;BME280;13450;49.374;8.584;2023-05-21T01:02:41;100115.31;;;15.55;nan
25560;BME280;13450;49.374;8.584;2023-05-21T01:05:08;100123.41;;;15.55;nan
25560;BME280;13450;49.374;8.584;2023-05-21T01:07:36;100129.84;;;15.54;nan
25560;BME280;13450;49.374;8.584;2023-05-21T01:10:04;100118.72;;;15.51;nan
25560;BME280;13450;49.374;8.584;2023-05-21T01:12:30;100116.81;;;15.51;nan
25560;BME280;13450;49.374;8.584;2023-05-21T01:14:58;100117.06;;;15.50;nan
25560;BME280;13450;49.374;8.584;2023-05-21T01:17:26;100111.91;;;15.48;nan
25560;BME280;13450;49.374;8.584;2023-05-21T01:19:51;100109.41;;;15.47;nan
25560;BME280;13450;49.374;8.584;2023-05-21T01:22:21;100109.19;;;15.48;nan
25560;BME280;13450;49.374;8.584;2023-05-21T01:24:49;100102.59;;;15.44;nan
25560;BME280;13450;49.374;8.584;2023-05-21T01:27:17;100094.53;;;15.44;nan
25560;BME280;13450;49.374;8.584;2023-05-21T01:29:42;100092.88;;;15.43;nan
25560;BME280;13450;49.374;8.584;2023-05-21T01:34:42;100094.59;;;15.37;nan
25560;BME280;13450;49.374;8.584;2023-05-21T01:37:17;100093.19;;;15.35;nan
25560;BME280;13450;49.374;8.584;2023-05-21T01:39:50;100097.72;;;15.34;nan
25560;BME280;13450;49.374;8.584;2023-05-21T01:42:17;100097.16;;;15.32;nan
25560;BME280;13450;49.374;8.584;2023-05-21T01:44:42;100094.69;;;15.30;nan
25560;BME280;13450;49.374;8.584;2023-05-21T01:47:12;100094.69;;;15.30;nan
25560;BME280;13450;49.374;8.584;2023-05-21T01:49:40;100093.03;;;15.29;nan
25560;BME280;13450;49.374;8.584;2023-05-21T01:52:06;100093.84;;;15.30;nan
25560;BME280;13450;49.374;8.584;2023-05-21T01:54:31;100087.41;;;15.31;nan
25560;BME280;13450;49.374;8.584;2023-05-21T01:56:57;100088.88;;;15.27;nan
25560;BME280;13450;49.374;8.584;2023-05-21T01:59:22;100081.88;;;15.26;nan
25560;BME280;13450;49.374;8.584;2023-05-21T02:01:47;100077.31;;;15.26;nan
25560;BME280;13450;49.374;8.584;2023-05-21T02:04:14;100077.31;;;15.26;nan
25560;BME280;13450;49.374;8.584;2023-05-21T02:06:39;100086.44;;;15.25;nan
25560;BME280;13450;49.374;8.584;2023-05-21T02:09:05;100074.84;;;15.25;nan
25560;BME280;13450;49.374;8.584;2023-05-21T02:11:31;100074.00;;;15.24;nan
25560;BME280;13450;49.374;8.584;2023-05-21T02:13:56;100083.75;;;15.25;nan
25560;BME280;13450;49.374;8.584;2023-05-21T02:16:21;100082.56;;;15.21;nan
25560;BME280;13450;49.374;8.584;2023-05-21T02:18:47;100083.56;;;15.20;nan
25560;BME280;13450;49.374;8.584;2023-05-21T02:21:15;100087.94;;;15.21;nan
25560;BME280;13450;49.374;8.584;2023-05-21T02:23:41;100083.56;;;15.20;nan
25560;BME280;13450;49.374;8.584;2023-05-21T02:26:06;100082.78;;;15.20;nan
25560;BME280;13450;49.374;8.584;2023-05-21T02:28:32;100078.66;;;15.17;nan
25560;BME280;13450;49.374;8.584;2023-05-21T02:30:58;100071.63;;;15.16;nan
25560;BME280;13450;49.374;8.584;2023-05-21T02:33:23;100076.53;;;15.19;nan
25560;BME280;13450;49.374;8.584;2023-05-21T02:35:48;100077.03;;;15.16;nan
25560;BME280;13450;49.374;8.584;2023-05-21T02:38:14;100073.72;;;15.14;nan
25560;BME280;13450;49.374;8.584;2023-05-21T02:40:43;100074.31;;;15.16;nan
25560;BME280;13450;49.374;8.584;2023-05-21T02:43:08;100072.06;;;15.13;nan
25560;BME280;13450;49.374;8.584;2023-05-21T02:45:34;100071.22;;;15.12;nan
25560;BME280;13450;49.374;8.584;2023-05-21T02:47:59;100074.16;;;15.11;nan
25560;BME280;13450;49.374;8.584;2023-05-21T02:50:26;100075.41;;;15.08;nan
25560;BME280;13450;49.374;8.584;2023-05-21T02:52:51;100067.34;;;15.08;nan
25560;BME280;13450;49.374;8.584;2023-05-21T02:55:16;100065.34;;;15.03;nan
25560;BME280;13450;49.374;8.584;2023-05-21T02:57:41;100069.09;;;15.02;nan
25560;BME280;13450;49.374;8.584;2023-05-21T03:00:09;100073.41;;;15.03;nan
25560;BME280;13450;49.374;8.584;2023-05-21T03:02:35;100070.09;;;15.01;nan
25560;BME280;13450;49.374;8.584;2023-05-21T03:05:01;100072.22;;;14.99;nan
25560;BME280;13450;49.374;8.584;2023-05-21T03:07:26;100071.59;;;14.97;nan
25560;BME280;13450;49.374;8.584;2023-05-21T03:09:52;100063.50;;;14.97;nan
25560;BME280;13450;49.374;8.584;2023-05-21T03:12:17;100068.53;;;14.94;nan
25560;BME280;13450;49.374;8.584;2023-05-21T03:14:44;100067.25;;;14.96;nan
25560;BME280;13450;49.374;8.584;2023-05-21T03:17:10;100060.66;;;14.92;nan
25560;BME280;13450;49.374;8.584;2023-05-21T03:19:43;100060.66;;;14.92;nan
25560;BME280;13450;49.374;8.584;2023-05-21T03:22:11;100061.13;;;14.89;nan
25560;BME280;13450;49.374;8.584;2023-05-21T03:24:39;100057.00;;;14.86;nan
25560;BME280;13450;49.374;8.584;2023-05-21T03:27:05;100055.34;;;14.85;nan
25560;BME280;13450;49.374;8.584;2023-05-21T03:29:33;100060.16;;;14.83;nan
25560;BME280;13450;49.374;8.584;2023-05-21T03:31:59;100062.44;;;14.80;nan
25560;BME280;13450;49.374;8.584;2023-05-21T03:34:25;100061.03;;;14.77;nan
25560;BME280;13450;49.374;8.584;2023-05-21T03:36:50;100063.09;;;14.75;nan
25560;BME280;13450;49.374;8.584;2023-05-21T03:39:16;100056.28;;;14.72;nan
25560;BME280;13450;49.374;8.584;2023-05-21T03:41:41;100066.22;;;14.72;nan
25560;BME280;13450;49.374;8.584;2023-05-21T03:44:07;100062.09;;;14.69;nan
25560;BME280;13450;49.374;8.584;2023-05-21T03:46:33;100065.00;;;14.68;nan
25560;BME280;13450;49.374;8.584;2023-05-21T03:48:58;100071.66;;;14.65;nan
25560;BME280;13450;49.374;8.584;2023-05-21T03:51:24;100063.00;;;14.63;nan
25560;BME280;13450;49.374;8.584;2023-05-21T03:53:50;100063.00;;;14.63;nan
25560;BME280;13450;49.374;8.584;2023-05-21T03:56:16;100061.81;;;14.59;nan
25560;BME280;13450;49.374;8.584;2023-05-21T03:58:41;100063.88;;;14.57;nan
25560;BME280;13450;49.374;8.584;2023-05-21T04:01:07;100068.00;;;14.59;nan
25560;BME280;13450;49.374;8.584;2023-05-21T04:03:33;100062.22;;;14.56;nan
25560;BME280;13450;49.374;8.584;2023-05-21T04:05:59;100062.84;;;14.58;nan
25560;BME280;13450;49.374;8.584;2023-05-21T04:08:25;100063.88;;;14.57;nan
25560;BME280;13450;49.374;8.584;2023-05-21T04:10:51;100066.34;;;14.58;nan
25560;BME280;13450;49.374;8.584;2023-05-21T04:13:16;100065.97;;;14.55;nan
25560;BME280;13450;49.374;8.584;2023-05-21T04:15:42;100064.72;;;14.57;nan
25560;BME280;13450;49.374;8.584;2023-05-21T04:18:08;100067.19;;;14.59;nan
25560;BME280;13450;49.374;8.584;2023-05-21T04:20:35;100069.88;;;14.59;nan
25560;BME280;13450;49.374;8.584;2023-05-21T04:23:00;100075.84;;;14.61;nan
25560;BME280;13450;49.374;8.584;2023-05-21T04:25:27;100074.81;;;14.62;nan
25560;BME280;13450;49.374;8.584;2023-05-21T04:27:52;100077.94;;;14.59;nan
25560;BME280;13450;49.374;8.584;2023-05-21T04:30:18;100076.47;;;14.63;nan
25560;BME280;13450;49.374;8.584;2023-05-21T04:32:44;100078.09;;;14.64;nan
25560;BME280;13450;49.374;8.584;2023-05-21T04:35:10;100086.63;;;14.61;nan
25560;BME280;13450;49.374;8.584;2023-05-21T04:37:36;100078.53;;;14.61;nan
25560;BME280;13450;49.374;8.584;2023-05-21T04:40:08;100084.97;;;14.60;nan
25560;BME280;13450;49.374;8.584;2023-05-21T04:42:33;100090.38;;;14.60;nan
25560;BME280;13450;49.374;8.584;2023-05-21T04:44:59;100090.97;;;14.62;nan
25560;BME280;13450;49.374;8.584;2023-05-21T04:47:24;100082.91;;;14.62;nan
25560;BME280;13450;49.374;8.584;2023-05-21T04:49:50;100082.91;;;14.62;nan
25560;BME280;13450;49.374;8.584;2023-05-21T04:52:15;100082.06;;;14.61;nan
25560;BME280;13450;49.374;8.584;2023-05-21T04:54:41;100095.31;;;14.63;nan
25560;BME280;13450;49.374;8.584;2023-05-21T04:57:07;100089.94;;;14.63;nan
25560;BME280;13450;49.374;8.584;2023-05-21T04:59:33;100096.13;;;14.63;nan
25560;BME280;13450;49.374;8.584;2023-05-21T05:01:58;100090.75;;;14.63;nan
25560;BME280;13450;49.374;8.584;2023-05-21T05:04:24;100093.44;;;14.63;nan
25560;BME280;13450;49.374;8.584;2023-05-21T05:06:51;100094.06;;;14.65;nan
25560;BME280;13450;49.374;8.584;2023-05-21T05:09:17;100095.69;;;14.67;nan
25560;BME280;13450;49.374;8.584;2023-05-21T05:11:43;100094.41;;;14.69;nan
25560;BME280;13450;49.374;8.584;2023-05-21T05:14:08;100093.38;;;14.70;nan
25560;BME280;13450;49.374;8.584;2023-05-21T05:16:34;100088.59;;;14.72;nan
25560;BME280;13450;49.374;8.584;2023-05-21T05:19:01;100094.56;;;14.74;nan
25560;BME280;13450;49.374;8.584;2023-05-21T05:21:28;100096.03;;;14.77;nan
25560;BME280;13450;49.374;8.584;2023-05-21T05:23:56;100093.75;;;14.81;nan
25560;BME280;13450;49.374;8.584;2023-05-21T05:26:22;100093.53;;;14.82;nan
25560;BME280;13450;49.374;8.584;2023-05-21T05:28:47;100094.69;;;14.86;nan
25560;BME280;13450;49.374;8.584;2023-05-21T05:31:13;100095.53;;;14.87;nan
25560;BME280;13450;49.374;8.584;2023-05-21T05:33:38;100085.97;;;14.91;nan
25560;BME280;13450;49.374;8.584;2023-05-21T05:36:05;100088.44;;;14.93;nan
25560;BME280;13450;49.374;8.584;2023-05-21T05:38:31;100094.19;;;14.96;nan
25560;BME280;13450;49.374;8.584;2023-05-21T05:40:57;100087.75;;;14.97;nan
25560;BME280;13450;49.374;8.584;2023-05-21T05:43:24;100087.94;;;15.02;nan
25560;BME280;13450;49.374;8.584;2023-05-21T05:45:49;100096.97;;;15.08;nan
25560;BME280;13450;49.374;8.584;2023-05-21T05:48:15;100098.56;;;15.16;nan
25560;BME280;13450;49.374;8.584;2023-05-21T05:50:40;100100.59;;;15.21;nan
25560;BME280;13450;49.374;8.584;2023-05-21T05:53:08;100097.81;;;15.27;nan
25560;BME280;13450;49.374;8.584;2023-05-21T05:55:33;100104.09;;;15.40;nan
25560;BME280;13450;49.374;8.584;2023-05-21T05:57:59;100102.75;;;15.49;nan
25560;BME280;13450;49.374;8.584;2023-05-21T06:00:27;100103.63;;;15.62;nan
25560;BME280;13450;49.374;8.584;2023-05-21T06:02:52;100096.28;;;15.69;nan
25560;BME280;13450;49.374;8.584;2023-05-21T06:05:17;100100.28;;;15.78;nan
25560;BME280;13450;49.374;8.584;2023-05-21T06:07:42;100107.19;;;15.93;nan
25560;BME280;13450;49.374;8.584;2023-05-21T06:10:10;100097.88;;;16.07;nan
25560;BME280;13450;49.374;8.584;2023-05-21T06:12:35;100094.25;;;16.26;nan
25560;BME280;13450;49.374;8.584;2023-05-21T06:15:01;100104.63;;;16.41;nan
25560;BME280;13450;49.374;8.584;2023-05-21T06:17:26;100103.94;;;16.57;nan
25560;BME280;13450;49.374;8.584;2023-05-21T06:19:55;100104.19;;;16.80;nan
25560;BME280;13450;49.374;8.584;2023-05-21T06:22:23;100101.00;;;16.95;nan
25560;BME280;13450;49.374;8.584;2023-05-21T06:24:49;100105.28;;;17.15;nan
25560;BME280;13450;49.374;8.584;2023-05-21T06:27:14;100104.53;;;17.19;nan
25560;BME280;13450;49.374;8.584;2023-05-21T06:29:42;100109.47;;;17.34;nan
25560;BME280;13450;49.374;8.584;2023-05-21T06:32:08;100102.81;;;17.54;nan
25560;BME280;13450;49.374;8.584;2023-05-21T06:34:33;100103.69;;;17.72;nan
25560;BME280;13450;49.374;8.584;2023-05-21T06:36:59;100108.66;;;17.92;nan
25560;BME280;13450;49.374;8.584;2023-05-21T06:39:24;100108.19;;;17.95;nan
25560;BME280;13450;49.374;8.584;2023-05-21T06:41:51;100102.84;;;18.12;nan
25560;BME280;13450;49.374;8.584;2023-05-21T06:44:16;100106.88;;;18.27;nan
25560;BME280;13450;49.374;8.584;2023-05-21T06:46:43;100099.50;;;18.39;nan
25560;BME280;13450;49.374;8.584;2023-05-21T06:49:09;100103.78;;;18.52;nan
25560;BME280;13450;49.374;8.584;2023-05-21T06:51:35;100105.34;;;18.65;nan
25560;BME280;13450;49.374;8.584;2023-05-21T06:54:01;100109.09;;;18.81;nan
25560;BME280;13450;49.374;8.584;2023-05-21T06:56:26;100112.19;;;18.90;nan
25560;BME280;13450;49.374;8.584;2023-05-21T06:58:51;100114.00;;;19.02;nan
25560;BME280;13450;49.374;8.584;2023-05-21T07:01:17;100111.00;;;19.20;nan
25560;BME280;13450;49.374;8.584;2023-05-21T07:03:43;100118.22;;;19.32;nan
25560;BME280;13450;49.374;8.584;2023-05-21T07:06:08;100109.66;;;19.40;nan
25560;BME280;13450;49.374;8.584;2023-05-21T07:08:34;100116.38;;;19.38;nan
25560;BME280;13450;49.374;8.584;2023-05-21T07:11:01;100118.16;;;19.49;nan
25560;BME280;13450;49.374;8.584;2023-05-21T07:13:28;100113.09;;;19.58;nan
25560;BME280;13450;49.374;8.584;2023-05-21T07:15:54;100121.88;;;19.65;nan
25560;BME280;13450;49.374;8.584;2023-05-21T07:18:19;100119.78;;;19.72;nan
25560;BME280;13450;49.374;8.584;2023-05-21T07:20:44;100122.81;;;19.76;nan
25560;BME280;13450;49.374;8.584;2023-05-21T07:23:10;100115.59;;;19.87;nan
25560;BME280;13450;49.374;8.584;2023-05-21T07:25:35;100119.28;;;19.98;nan
25560;BME280;13450;49.374;8.584;2023-05-21T07:28:00;100112.53;;;20.06;nan
25560;BME280;13450;49.374;8.584;2023-05-21T07:30:26;100117.53;;;20.14;nan
25560;BME280;13450;49.374;8.584;2023-05-21T07:32:51;100121.75;;;20.32;nan
25560;BME280;13450;49.374;8.584;2023-05-21T07:35:21;100111.84;;;20.48;nan
25560;BME280;13450;49.374;8.584;2023-05-21T07:37:46;100119.69;;;20.45;nan
25560;BME280;13450;49.374;8.584;2023-05-21T07:40:12;100110.00;;;20.59;nan
25560;BME280;13450;49.374;8.584;2023-05-21T07:42:37;100115.56;;;20.75;nan
25560;BME280;13450;49.374;8.584;2023-05-21T07:45:03;100110.72;;;20.82;nan
25560;BME280;13450;49.374;8.584;2023-05-21T07:47:28;100114.81;;;20.85;nan
25560;BME280;13450;49.374;8.584;2023-05-21T07:49:54;100112.16;;;20.90;nan
25560;BME280;13450;49.374;8.584;2023-05-21T07:52:20;100117.09;;;20.98;nan
25560;BME280;13450;49.374;8.584;2023-05-21T07:54:48;100109.50;;;21.06;nan
25560;BME280;13450;49.374;8.584;2023-05-21T07:57:14;100112.25;;;21.11;nan
25560;BME280;13450;49.374;8.584;2023-05-21T07:59:41;100110.66;;;21.15;nan
25560;BME280;13450;49.374;8.584;2023-05-21T08:02:07;100104.38;;;21.09;nan
25560;BME280;13450;49.374;8.584;2023-05-21T08:04:32;100109.63;;;21.26;nan
25560;BME280;13450;49.374;8.584;2023-05-21T08:06:58;100106.41;;;21.35;nan
25560;BME280;13450;49.374;8.584;2023-05-21T08:09:23;100113.44;;;21.25;nan
25560;BME280;13450;49.374;8.584;2023-05-21T08:11:49;100116.69;;;21.27;nan
25560;BME280;13450;49.374;8.584;2023-05-21T08:14:15;100115.09;;;21.37;nan
25560;BME280;13450;49.374;8.584;2023-05-21T08:16:42;100106.69;;;21.38;nan
25560;BME280;13450;49.374;8.584;2023-05-21T08:19:09;100108.53;;;21.22;nan
25560;BME280;13450;49.374;8.584;2023-05-21T08:21:37;100103.13;;;21.38;nan
25560;BME280;13450;49.374;8.584;2023-05-21T08:24:02;100111.28;;;21.38;nan
25560;BME280;13450;49.374;8.584;2023-05-21T08:26:28;100105.34;;;21.41;nan
25560;BME280;13450;49.374;8.584;2023-05-21T08:28:53;100100.16;;;21.45;nan
25560;BME280;13450;49.374;8.584;2023-05-21T08:31:18;100099.38;;;21.44;nan
25560;BME280;13450;49.374;8.584;2023-05-21T08:33:53;100097.69;;;21.43;nan
25560;BME280;13450;49.374;8.584;2023-05-21T08:36:21;100103.69;;;21.40;nan
25560;BME280;13450;49.374;8.584;2023-05-21T08:38:47;100109.16;;;21.40;nan
25560;BME280;13450;49.374;8.584;2023-05-21T08:41:12;100101.00;;;21.45;nan
25560;BME280;13450;49.374;8.584;2023-05-21T08:43:38;100096.66;;;21.44;nan
25560;BME280;13450;49.374;8.584;2023-05-21T08:46:04;100094.50;;;21.56;nan
25560;BME280;13450;49.374;8.584;2023-05-21T08:48:30;100093.22;;;21.75;nan
25560;BME280;13450;49.374;8.584;2023-05-21T08:50:58;100099.50;;;21.80;nan
25560;BME280;13450;49.374;8.584;2023-05-21T08:53:24;100098.41;;;21.81;nan
25560;BME280;13450;49.374;8.584;2023-05-21T08:55:52;100097.03;;;21.74;nan
25560;BME280;13450;49.374;8.584;2023-05-21T08:58:18;100091.59;;;21.84;nan
25560;BME280;13450;49.374;8.584;2023-05-21T09:00:43;100085.34;;;21.89;nan
25560;BME280;13450;49.374;8.584;2023-05-21T09:03:09;100089.97;;;21.93;nan
25560;BME280;13450;49.374;8.584;2023-05-21T09:05:40;100092.47;;;22.16;nan
25560;BME280;13450;49.374;8.584;2023-05-21T09:08:11;100097.91;;;22.26;nan
25560;BME280;13450;49.374;8.584;2023-05-21T09:10:40;100096.28;;;22.36;nan
25560;BME280;13450;49.374;8.584;2023-05-21T09:13:07;100102.00;;;22.39;nan
25560;BME280;13450;49.374;8.584;2023-05-21T09:15:34;100095.75;;;22.44;nan
25560;BME280;13450;49.374;8.584;2023-05-21T09:18:00;100100.94;;;22.40;nan
25560;BME280;13450;49.374;8.584;2023-05-21T09:20:26;100096.28;;;22.36;nan
25560;BME280;13450;49.374;8.584;2023-05-21T09:22:53;100089.19;;;22.24;nan
25560;BME280;13450;49.374;8.584;2023-05-21T09:25:22;100093.28;;;22.37;nan
25560;BME280;13450;49.374;8.584;2023-05-21T09:27:47;100098.47;;;22.54;nan
25560;BME280;13450;49.374;8.584;2023-05-21T09:30:14;100100.09;;;22.76;nan
25560;BME280;13450;49.374;8.584;2023-05-21T09:32:44;100097.03;;;22.98;nan
25560;BME280;13450;49.374;8.584;2023-05-21T09:35:12;100099.72;;;23.14;nan
25560;BME280;13450;49.374;8.584;2023-05-21T09:37:38;100094.22;;;23.35;nan
25560;BME280;13450;49.374;8.584;2023-05-21T09:42:44;100094.34;;;23.59;nan
25560;BME280;13450;49.374;8.584;2023-05-21T09:45:10;100096.44;;;23.78;nan
25560;BME280;13450;49.374;8.584;2023-05-21T09:47:42;100096.34;;;23.94;nan
25560;BME280;13450;49.374;8.584;2023-05-21T09:50:12;100091.56;;;24.15;nan
25560;BME280;13450;49.374;8.584;2023-05-21T09:52:38;100091.19;;;24.32;nan
25560;BME280;13450;49.374;8.584;2023-05-21T09:55:12;100090.53;;;24.40;nan
25560;BME280;13450;49.374;8.584;2023-05-21T09:57:46;100089.19;;;24.38;nan
25560;BME280;13450;49.374;8.584;2023-05-21T10:00:22;100088.91;;;24.39;nan
25560;BME280;13450;49.374;8.584;2023-05-21T10:02:52;100084.59;;;24.33;nan
25560;BME280;13450;49.374;8.584;2023-05-21T10:05:19;100085.59;;;24.42;nan
25560;BME280;13450;49.374;8.584;2023-05-21T10:07:51;100086.91;;;24.50;nan
25560;BME280;13450;49.374;8.584;2023-05-21T10:10:20;100084.41;;;24.54;nan
25560;BME280;13450;49.374;8.584;2023-05-21T10:12:59;100081.81;;;24.68;nan
25560;BME280;13450;49.374;8.584;2023-05-21T10:15:27;100079.22;;;24.82;nan
25560;BME280;13450;49.374;8.584;2023-05-21T10:17:54;100087.03;;;25.18;nan
25560;BME280;13450;49.374;8.584;2023-05-21T10:20:21;100089.56;;;25.34;nan
25560;BME280;13450;49.374;8.584;2023-05-21T10:22:46;100086.84;;;25.34;nan
25560;BME280;13450;49.374;8.584;2023-05-21T10:25:12;100086.53;;;25.60;nan
25560;BME280;13450;49.374;8.584;2023-05-21T10:27:38;100077.50;;;25.79;nan
25560;BME280;13450;49.374;8.584;2023-05-21T10:30:06;100070.94;;;26.13;nan
25560;BME280;13450;49.374;8.584;2023-05-21T10:32:32;100081.16;;;26.27;nan
25560;BME280;13450;49.374;8.584;2023-05-21T10:34:58;100088.09;;;26.38;nan
25560;BME280;13450;49.374;8.584;2023-05-21T10:37:24;100074.13;;;26.54;nan
25560;BME280;13450;49.374;8.584;2023-05-21T10:39:51;100075.34;;;26.75;nan
25560;BME280;13450;49.374;8.584;2023-05-21T10:48:04;100079.44;;;27.20;nan
25560;BME280;13450;49.374;8.584;2023-05-21T10:53:27;100083.06;;;27.58;nan
25560;BME280;13450;49.374;8.584;2023-05-21T10:58:44;100076.56;;;28.13;nan
25560;BME280;13450;49.374;8.584;2023-05-21T11:01:12;100070.75;;;28.38;nan
25560;BME280;13450;49.374;8.584;2023-05-21T11:03:38;100070.91;;;29.05;nan
25560;BME280;13450;49.374;8.584;2023-05-21T11:06:06;100066.00;;;29.51;nan
25560;BME280;13450;49.374;8.584;2023-05-21T11:08:32;100060.13;;;29.70;nan
25560;BME280;13450;49.374;8.584;2023-05-21T11:11:01;100059.53;;;30.96;nan
25560;BME280;13450;49.374;8.584;2023-05-21T11:13:47;100051.09;;;32.54;nan
25560;BME280;13450;49.374;8.584;2023-05-21T11:16:16;100059.53;;;33.61;nan
25560;BME280;13450;49.374;8.584;2023-05-21T11:21:10;100056.88;;;35.22;nan
25560;BME280;13450;49.374;8.584;2023-05-21T11:23:55;100054.19;;;36.75;nan
25560;BME280;13450;49.374;8.584;2023-05-21T11:26:23;100058.50;;;36.96;nan
25560;BME280;13450;49.374;8.584;2023-05-21T11:31:30;100052.50;;;38.80;nan
25560;BME280;13450;49.374;8.584;2023-05-21T11:39:43;100054.56;;;38.87;nan
25560;BME280;13450;49.374;8.584;2023-05-21T11:42:09;100042.66;;;39.93;nan
25560;BME280;13450;49.374;8.584;2023-05-21T11:44:38;100044.88;;;38.69;nan
25560;BME280;13450;49.374;8.584;2023-05-21T11:47:05;100042.13;;;37.21;nan
25560;BME280;13450;49.374;8.584;2023-05-21T11:49:35;100038.59;;;36.97;nan
25560;BME280;13450;49.374;8.584;2023-05-21T11:52:03;100036.25;;;39.00;nan
25560;BME280;13450;49.374;8.584;2023-05-21T11:54:29;100044.47;;;38.67;nan
25560;BME280;13450;49.374;8.584;2023-05-21T11:57:01;100033.00;;;38.83;nan
25560;BME280;13450;49.374;8.584;2023-05-21T11:59:26;100030.84;;;39.26;nan
25560;BME280;13450;49.374;8.584;2023-05-21T12:01:53;100038.22;;;38.96;nan
25560;BME280;13450;49.374;8.584;2023-05-21T12:04:18;100033.00;;;39.72;nan
25560;BME280;13450;49.374;8.584;2023-05-21T12:06:44;100045.13;;;39.06;nan
25560;BME280;13450;49.374;8.584;2023-05-21T12:09:10;100033.75;;;39.51;nan
25560;BME280;13450;49.374;8.584;2023-05-21T12:11:37;100030.28;;;40.09;nan
25560;BME280;13450;49.374;8.584;2023-05-21T12:14:14;100035.84;;;38.94;nan
25560;BME280;13450;49.374;8.584;2023-05-21T12:16:40;100032.81;;;39.21;nan
25560;BME280;13450;49.374;8.584;2023-05-21T12:19:05;100035.66;;;38.65;nan
25560;BME280;13450;49.374;8.584;2023-05-21T12:21:31;100026.16;;;38.25;nan
25560;BME280;13450;49.374;8.584;2023-05-21T12:23:58;100030.81;;;38.58;nan
25560;BME280;13450;49.374;8.584;2023-05-21T12:26:24;100035.75;;;38.80;nan
25560;BME280;13450;49.374;8.584;2023-05-21T12:28:53;100020.28;;;40.33;nan
25560;BME280;13450;49.374;8.584;2023-05-21T12:31:20;100023.84;;;39.79;nan
25560;BME280;13450;49.374;8.584;2023-05-21T12:33:49;100024.06;;;39.34;nan
25560;BME280;13450;49.374;8.584;2023-05-21T12:38:48;100024.84;;;38.60;nan
25560;BME280;13450;49.374;8.584;2023-05-21T12:41:17;100017.19;;;37.32;nan
25560;BME280;13450;49.374;8.584;2023-05-21T12:43:42;100026.72;;;36.50;nan
25560;BME280;13450;49.374;8.584;2023-05-21T12:46:13;100018.53;;;37.46;nan
25560;BME280;13450;49.374;8.584;2023-05-21T12:48:49;100022.00;;;37.08;nan
25560;BME280;13450;49.374;8.584;2023-05-21T12:51:16;100024.59;;;35.96;nan
25560;BME280;13450;49.374;8.584;2023-05-21T12:53:42;100024.25;;;36.95;nan
25560;BME280;13450;49.374;8.584;2023-05-21T12:56:10;100019.63;;;37.72;nan
25560;BME280;13450;49.374;8.584;2023-05-21T12:58:36;100019.66;;;38.58;nan
25560;BME280;13450;49.374;8.584;2023-05-21T13:01:11;100025.19;;;37.68;nan
25560;BME280;13450;49.374;8.584;2023-05-21T13:03:37;100017.00;;;37.52;nan
25560;BME280;13450;49.374;8.584;2023-05-21T13:06:06;100017.84;;;36.95;nan
25560;BME280;13450;49.374;8.584;2023-05-21T13:08:32;100026.41;;;36.08;nan
25560;BME280;13450;49.374;8.584;2023-05-21T13:11:02;100018.31;;;36.23;nan
25560;BME280;13450;49.374;8.584;2023-05-21T13:13:27;100014.66;;;36.93;nan
25560;BME280;13450;49.374;8.584;2023-05-21T13:15:53;100023.28;;;36.33;nan
25560;BME280;13450;49.374;8.584;2023-05-21T13:18:19;100021.81;;;35.96;nan
25560;BME280;13450;49.374;8.584;2023-05-21T13:20:47;100021.59;;;36.05;nan
25560;BME280;13450;49.374;8.584;2023-05-21T13:23:13;100014.69;;;35.76;nan
25560;BME280;13450;49.374;8.584;2023-05-21T13:25:40;100013.28;;;36.79;nan
25560;BME280;13450;49.374;8.584;2023-05-21T13:28:06;100019.75;;;36.63;nan
25560;BME280;13450;49.374;8.584;2023-05-21T13:30:36;100021.47;;;37.26;nan
25560;BME280;13450;49.374;8.584;2023-05-21T13:33:02;100013.97;;;36.72;nan
25560;BME280;13450;49.374;8.584;2023-05-21T13:35:27;100014.44;;;36.78;nan
25560;BME280;13450;49.374;8.584;2023-05-21T13:37:54;100017.34;;;36.35;nan